sensor_id;sensor_type;location;lat;lon;timestamp;temperature;humidity
41985;DHT22;28319;48.116;10.818;2024-03-02T00:04:05;6.30;77.00
41985;DHT22;28319;48.116;10.818;2024-03-02T00:09:09;6.40;76.60
41985;DHT22;28319;48.116;10.818;2024-03-02T00:14:12;6.50;76.40
41985;DHT22;28319;48.116;10.818;2024-03-02T00:19:16;6.30;76.80
41985;DHT22;28319;48.116;10.818;2024-03-02T00:24:21;6.30;76.90
41985;DHT22;28319;48.116;10.818;2024-03-02T00:29:23;6.20;76.50
41985;DHT22;28319;48.116;10.818;2024-03-02T00:34:26;6.20;77.20
41985;DHT22;28319;48.116;10.818;2024-03-02T00:39:29;6.10;77.80
41985;DHT22;28319;48.116;10.818;2024-03-02T00:44:34;6.00;78.30
41985;DHT22;28319;48.116;10.818;2024-03-02T00:49:37;6.00;78.30
41985;DHT22;28319;48.116;10.818;2024-03-02T00:54:39;6.00;77.90
41985;DHT22;28319;48.116;10.818;2024-03-02T00:59:41;6.00;77.90
41985;DHT22;28319;48.116;10.818;2024-03-02T01:04:44;6.00;78.60
41985;DHT22;28319;48.116;10.818;2024-03-02T01:09:46;5.90;78.60
41985;DHT22;28319;48.116;10.818;2024-03-02T01:14:48;5.90;78.90
41985;DHT22;28319;48.116;10.818;2024-03-02T01:19:52;6.10;77.30
41985;DHT22;28319;48.116;10.818;2024-03-02T01:24:54;6.20;75.80
41985;DHT22;28319;48.116;10.818;2024-03-02T01:29:56;5.70;80.20
41985;DHT22;28319;48.116;10.818;2024-03-02T01:34:59;6.00;79.50
41985;DHT22;28319;48.116;10.818;2024-03-02T01:40:01;5.90;78.30
41985;DHT22;28319;48.116;10.818;2024-03-02T01:45:09;5.80;80.80
41985;DHT22;28319;48.116;10.818;2024-03-02T01:50:12;5.70;80.40
41985;DHT22;28319;48.116;10.818;2024-03-02T01:55:15;5.80;79.00
41985;DHT22;28319;48.116;10.818;2024-03-02T02:00:17;5.90;77.10
41985;DHT22;28319;48.116;10.818;2024-03-02T02:05:21;6.10;76.60
41985;DHT22;28319;48.116;10.818;2024-03-02T02:10:23;6.10;75.80
41985;DHT22;28319;48.116;10.818;2024-03-02T02:15:26;6.00;76.10
41985;DHT22;28319;48.116;10.818;2024-03-02T02:20:29;5.90;78.30
41985;DHT22;28319;48.116;10.818;2024-03-02T02:25:33;5.90;77.00
41985;DHT22;28319;48.116;10.818;2024-03-02T02:30:35;6.00;75.80
41985;DHT22;28319;48.116;10.818;2024-03-02T02:35:36;6.00;76.10
41985;DHT22;28319;48.116;10.818;2024-03-02T02:40:40;6.10;75.60
41985;DHT22;28319;48.116;10.818;2024-03-02T02:45:42;6.10;75.80
41985;DHT22;28319;48.116;10.818;2024-03-02T02:50:44;6.00;76.10
41985;DHT22;28319;48.116;10.818;2024-03-02T02:55:47;6.10;75.70
41985;DHT22;28319;48.116;10.818;2024-03-02T03:00:49;6.10;75.70
41985;DHT22;28319;48.116;10.818;2024-03-02T03:05:51;6.00;75.80
41985;DHT22;28319;48.116;10.818;2024-03-02T03:10:54;6.00;75.80
41985;DHT22;28319;48.116;10.818;2024-03-02T03:15:56;6.00;75.60
41985;DHT22;28319;48.116;10.818;2024-03-02T03:20:58;6.00;75.90
41985;DHT22;28319;48.116;10.818;2024-03-02T03:26:02;6.50;75.80
41985;DHT22;28319;48.116;10.818;2024-03-02T03:31:04;6.00;76.60
41985;DHT22;28319;48.116;10.818;2024-03-02T03:36:06;5.90;76.10
41985;DHT22;28319;48.116;10.818;2024-03-02T03:41:09;5.80;76.50
41985;DHT22;28319;48.116;10.818;2024-03-02T03:46:11;5.80;77.10
41985;DHT22;28319;48.116;10.818;2024-03-02T03:51:13;5.90;76.40
41985;DHT22;28319;48.116;10.818;2024-03-02T03:56:16;6.00;74.90
41985;DHT22;28319;48.116;10.818;2024-03-02T04:01:18;6.10;75.20
41985;DHT22;28319;48.116;10.818;2024-03-02T04:06:22;6.20;74.50
41985;DHT22;28319;48.116;10.818;2024-03-02T04:11:26;6.10;75.50
41985;DHT22;28319;48.116;10.818;2024-03-02T04:16:27;6.00;76.60
41985;DHT22;28319;48.116;10.818;2024-03-02T04:21:30;6.00;75.00
41985;DHT22;28319;48.116;10.818;2024-03-02T04:26:33;5.80;76.80
41985;DHT22;28319;48.116;10.818;2024-03-02T04:31:35;5.70;77.10
41985;DHT22;28319;48.116;10.818;2024-03-02T04:36:37;5.60;78.30
41985;DHT22;28319;48.116;10.818;2024-03-02T04:41:40;5.50;78.70
41985;DHT22;28319;48.116;10.818;2024-03-02T04:46:42;5.60;79.00
41985;DHT22;28319;48.116;10.818;2024-03-02T04:51:44;5.50;79.50
41985;DHT22;28319;48.116;10.818;2024-03-02T04:56:47;5.50;79.00
41985;DHT22;28319;48.116;10.818;2024-03-02T05:01:51;5.60;77.10
41985;DHT22;28319;48.116;10.818;2024-03-02T05:06:53;5.60;78.70
41985;DHT22;28319;48.116;10.818;2024-03-02T05:11:58;5.60;76.40
41985;DHT22;28319;48.116;10.818;2024-03-02T05:17:29;5.60;76.10
41985;DHT22;28319;48.116;10.818;2024-03-02T05:22:31;5.70;76.00
41985;DHT22;28319;48.116;10.818;2024-03-02T05:27:35;5.80;74.50
41985;DHT22;28319;48.116;10.818;2024-03-02T05:32:37;5.60;75.90
41985;DHT22;28319;48.116;10.818;2024-03-02T05:37:39;5.40;75.90
41985;DHT22;28319;48.116;10.818;2024-03-02T05:42:43;5.50;75.30
41985;DHT22;28319;48.116;10.818;2024-03-02T05:47:44;5.50;74.60
41985;DHT22;28319;48.116;10.818;2024-03-02T05:52:46;5.50;75.30
41985;DHT22;28319;48.116;10.818;2024-03-02T05:57:50;5.40;75.00
41985;DHT22;28319;48.116;10.818;2024-03-02T06:03:04;5.30;75.20
41985;DHT22;28319;48.116;10.818;2024-03-02T06:08:06;5.20;76.00
41985;DHT22;28319;48.116;10.818;2024-03-02T06:13:10;5.20;75.70
41985;DHT22;28319;48.116;10.818;2024-03-02T06:18:12;5.30;75.50
41985;DHT22;28319;48.116;10.818;2024-03-02T06:23:14;5.00;76.20
41985;DHT22;28319;48.116;10.818;2024-03-02T06:28:17;5.30;75.90
41985;DHT22;28319;48.116;10.818;2024-03-02T06:33:19;5.00;75.80
41985;DHT22;28319;48.116;10.818;2024-03-02T06:38:21;4.90;76.30
41985;DHT22;28319;48.116;10.818;2024-03-02T06:43:25;4.90;76.60
41985;DHT22;28319;48.116;10.818;2024-03-02T06:48:26;4.90;76.30
41985;DHT22;28319;48.116;10.818;2024-03-02T06:53:30;4.90;76.10
41985;DHT22;28319;48.116;10.818;2024-03-02T06:58:35;5.00;75.80
41985;DHT22;28319;48.116;10.818;2024-03-02T07:03:37;5.00;75.80
41985;DHT22;28319;48.116;10.818;2024-03-02T07:08:40;4.90;76.30
41985;DHT22;28319;48.116;10.818;2024-03-02T07:13:43;4.90;76.50
41985;DHT22;28319;48.116;10.818;2024-03-02T07:18:45;5.00;75.60
41985;DHT22;28319;48.116;10.818;2024-03-02T07:23:52;5.40;79.10
41985;DHT22;28319;48.116;10.818;2024-03-02T07:28:55;5.00;79.60
41985;DHT22;28319;48.116;10.818;2024-03-02T07:33:57;5.10;82.20
41985;DHT22;28319;48.116;10.818;2024-03-02T07:38:59;5.30;85.80
41985;DHT22;28319;48.116;10.818;2024-03-02T07:44:02;5.30;85.30
41985;DHT22;28319;48.116;10.818;2024-03-02T07:49:04;5.80;86.30
41985;DHT22;28319;48.116;10.818;2024-03-02T07:54:06;5.60;87.00
41985;DHT22;28319;48.116;10.818;2024-03-02T07:59:09;5.80;86.20
41985;DHT22;28319;48.116;10.818;2024-03-02T08:04:11;6.00;84.40
41985;DHT22;28319;48.116;10.818;2024-03-02T08:09:13;6.00;84.10
41985;DHT22;28319;48.116;10.818;2024-03-02T08:14:16;6.10;82.70
41985;DHT22;28319;48.116;10.818;2024-03-02T08:19:18;6.50;83.80
41985;DHT22;28319;48.116;10.818;2024-03-02T08:24:20;6.40;82.20
41985;DHT22;28319;48.116;10.818;2024-03-02T08:29:23;6.50;82.60
41985;DHT22;28319;48.116;10.818;2024-03-02T08:34:25;6.70;83.20
41985;DHT22;28319;48.116;10.818;2024-03-02T08:39:27;6.80;82.60
41985;DHT22;28319;48.116;10.818;2024-03-02T08:44:31;7.20;81.20
41985;DHT22;28319;48.116;10.818;2024-03-02T08:49:34;7.50;81.60
41985;DHT22;28319;48.116;10.818;2024-03-02T08:54:36;7.60;80.00
41985;DHT22;28319;48.116;10.818;2024-03-02T08:59:40;7.30;80.50
41985;DHT22;28319;48.116;10.818;2024-03-02T09:04:42;7.40;78.20
41985;DHT22;28319;48.116;10.818;2024-03-02T09:09:44;7.70;76.60
41985;DHT22;28319;48.116;10.818;2024-03-02T09:14:47;8.00;76.40
41985;DHT22;28319;48.116;10.818;2024-03-02T09:19:49;7.80;76.00
41985;DHT22;28319;48.116;10.818;2024-03-02T09:24:53;8.20;75.60
41985;DHT22;28319;48.116;10.818;2024-03-02T09:29:56;8.40;75.10
41985;DHT22;28319;48.116;10.818;2024-03-02T09:34:58;8.40;72.80
41985;DHT22;28319;48.116;10.818;2024-03-02T09:40:01;8.60;72.50
41985;DHT22;28319;48.116;10.818;2024-03-02T09:45:05;8.80;72.70
41985;DHT22;28319;48.116;10.818;2024-03-02T09:50:08;9.10;72.00
41985;DHT22;28319;48.116;10.818;2024-03-02T09:55:11;9.40;69.30
41985;DHT22;28319;48.116;10.818;2024-03-02T10:00:16;9.50;67.80
41985;DHT22;28319;48.116;10.818;2024-03-02T10:05:24;9.70;68.70
41985;DHT22;28319;48.116;10.818;2024-03-02T10:10:34;9.70;66.60
41985;DHT22;28319;48.116;10.818;2024-03-02T10:15:39;9.70;67.50
41985;DHT22;28319;48.116;10.818;2024-03-02T10:20:42;9.90;65.80
41985;DHT22;28319;48.116;10.818;2024-03-02T10:25:44;9.80;65.30
41985;DHT22;28319;48.116;10.818;2024-03-02T10:30:49;9.90;65.20
41985;DHT22;28319;48.116;10.818;2024-03-02T10:35:52;9.90;66.40
41985;DHT22;28319;48.116;10.818;2024-03-02T10:40:55;10.10;66.10
41985;DHT22;28319;48.116;10.818;2024-03-02T10:46:00;10.20;64.20
41985;DHT22;28319;48.116;10.818;2024-03-02T10:51:03;10.60;65.50
41985;DHT22;28319;48.116;10.818;2024-03-02T10:56:07;11.20;64.80
41985;DHT22;28319;48.116;10.818;2024-03-02T11:01:13;11.60;63.50
41985;DHT22;28319;48.116;10.818;2024-03-02T11:06:15;12.00;63.60
41985;DHT22;28319;48.116;10.818;2024-03-02T11:11:22;12.20;60.30
41985;DHT22;28319;48.116;10.818;2024-03-02T11:16:33;12.20;59.80
41985;DHT22;28319;48.116;10.818;2024-03-02T11:21:36;12.30;58.80
41985;DHT22;28319;48.116;10.818;2024-03-02T11:26:38;12.40;58.20
41985;DHT22;28319;48.116;10.818;2024-03-02T11:32:00;12.70;57.00
41985;DHT22;28319;48.116;10.818;2024-03-02T11:37:03;12.50;58.50
41985;DHT22;28319;48.116;10.818;2024-03-02T11:42:06;12.70;57.80
41985;DHT22;28319;48.116;10.818;2024-03-02T11:47:13;12.70;55.80
41985;DHT22;28319;48.116;10.818;2024-03-02T11:52:18;12.90;56.20
41985;DHT22;28319;48.116;10.818;2024-03-02T11:57:21;12.70;54.40
41985;DHT22;28319;48.116;10.818;2024-03-02T12:02:25;13.00;55.40
41985;DHT22;28319;48.116;10.818;2024-03-02T12:07:27;13.00;56.10
41985;DHT22;28319;48.116;10.818;2024-03-02T12:12:29;13.20;56.50
41985;DHT22;28319;48.116;10.818;2024-03-02T12:17:32;13.30;55.50
41985;DHT22;28319;48.116;10.818;2024-03-02T12:22:34;13.20;56.60
41985;DHT22;28319;48.116;10.818;2024-03-02T12:27:36;13.40;56.90
41985;DHT22;28319;48.116;10.818;2024-03-02T12:32:39;13.50;55.60
41985;DHT22;28319;48.116;10.818;2024-03-02T12:37:42;13.80;56.00
41985;DHT22;28319;48.116;10.818;2024-03-02T12:42:46;13.50;54.80
41985;DHT22;28319;48.116;10.818;2024-03-02T12:47:50;13.20;54.40
41985;DHT22;28319;48.116;10.818;2024-03-02T12:52:53;13.40;55.40
41985;DHT22;28319;48.116;10.818;2024-03-02T12:57:55;13.50;56.60
41985;DHT22;28319;48.116;10.818;2024-03-02T13:02:59;13.70;56.50
41985;DHT22;28319;48.116;10.818;2024-03-02T13:08:05;13.70;55.70
41985;DHT22;28319;48.116;10.818;2024-03-02T13:13:08;13.80;56.30
41985;DHT22;28319;48.116;10.818;2024-03-02T13:18:11;14.10;57.90
41985;DHT22;28319;48.116;10.818;2024-03-02T13:23:13;14.10;57.10
41985;DHT22;28319;48.116;10.818;2024-03-02T13:28:15;13.90;56.70
41985;DHT22;28319;48.116;10.818;2024-03-02T13:33:19;13.80;57.00
41985;DHT22;28319;48.116;10.818;2024-03-02T13:38:23;13.80;57.70
41985;DHT22;28319;48.116;10.818;2024-03-02T13:43:25;13.80;56.60
41985;DHT22;28319;48.116;10.818;2024-03-02T13:48:28;14.10;56.40
41985;DHT22;28319;48.116;10.818;2024-03-02T13:53:31;14.20;56.40
41985;DHT22;28319;48.116;10.818;2024-03-02T13:58:33;14.00;55.70
41985;DHT22;28319;48.116;10.818;2024-03-02T14:03:37;14.10;54.90
41985;DHT22;28319;48.116;10.818;2024-03-02T14:08:39;14.10;55.80
41985;DHT22;28319;48.116;10.818;2024-03-02T14:13:41;14.40;54.90
41985;DHT22;28319;48.116;10.818;2024-03-02T14:18:46;14.40;53.90
41985;DHT22;28319;48.116;10.818;2024-03-02T14:23:48;14.30;54.00
41985;DHT22;28319;48.116;10.818;2024-03-02T14:28:50;14.10;55.00
41985;DHT22;28319;48.116;10.818;2024-03-02T14:33:54;13.90;55.80
41985;DHT22;28319;48.116;10.818;2024-03-02T14:38:56;14.00;56.50
41985;DHT22;28319;48.116;10.818;2024-03-02T14:43:58;14.00;56.80
41985;DHT22;28319;48.116;10.818;2024-03-02T14:49:01;13.70;58.50
41985;DHT22;28319;48.116;10.818;2024-03-02T14:54:03;13.60;58.40
41985;DHT22;28319;48.116;10.818;2024-03-02T14:59:05;13.50;59.30
41985;DHT22;28319;48.116;10.818;2024-03-02T15:04:08;13.10;60.60
41985;DHT22;28319;48.116;10.818;2024-03-02T15:09:10;13.00;60.40
41985;DHT22;28319;48.116;10.818;2024-03-02T15:14:13;13.00;60.20
41985;DHT22;28319;48.116;10.818;2024-03-02T15:19:16;12.90;60.00
41985;DHT22;28319;48.116;10.818;2024-03-02T15:24:18;12.80;60.10
41985;DHT22;28319;48.116;10.818;2024-03-02T15:29:20;12.60;60.40
41985;DHT22;28319;48.116;10.818;2024-03-02T15:34:26;12.50;62.00
41985;DHT22;28319;48.116;10.818;2024-03-02T15:39:28;12.40;62.40
41985;DHT22;28319;48.116;10.818;2024-03-02T15:44:30;12.30;61.70
41985;DHT22;28319;48.116;10.818;2024-03-02T15:49:33;12.20;61.80
41985;DHT22;28319;48.116;10.818;2024-03-02T15:54:35;12.20;62.50
41985;DHT22;28319;48.116;10.818;2024-03-02T15:59:37;12.10;62.00
41985;DHT22;28319;48.116;10.818;2024-03-02T16:04:41;12.00;62.00
41985;DHT22;28319;48.116;10.818;2024-03-02T16:09:43;11.80;61.90
41985;DHT22;28319;48.116;10.818;2024-03-02T16:14:45;11.60;62.30
41985;DHT22;28319;48.116;10.818;2024-03-02T16:19:48;11.50;62.70
41985;DHT22;28319;48.116;10.818;2024-03-02T16:24:50;11.40;63.10
41985;DHT22;28319;48.116;10.818;2024-03-02T16:29:52;11.10;63.20
41985;DHT22;28319;48.116;10.818;2024-03-02T16:34:57;11.00;63.90
41985;DHT22;28319;48.116;10.818;2024-03-02T16:39:59;10.90;63.70
41985;DHT22;28319;48.116;10.818;2024-03-02T16:45:00;10.80;64.10
41985;DHT22;28319;48.116;10.818;2024-03-02T16:50:05;10.70;64.50
41985;DHT22;28319;48.116;10.818;2024-03-02T16:55:09;10.50;64.90
41985;DHT22;28319;48.116;10.818;2024-03-02T17:00:12;10.40;65.50
41985;DHT22;28319;48.116;10.818;2024-03-02T17:05:16;10.30;65.80
41985;DHT22;28319;48.116;10.818;2024-03-02T17:10:21;10.20;66.20
41985;DHT22;28319;48.116;10.818;2024-03-02T17:15:23;10.10;67.00
41985;DHT22;28319;48.116;10.818;2024-03-02T17:20:26;10.00;67.30
41985;DHT22;28319;48.116;10.818;2024-03-02T17:25:28;9.90;67.50
41985;DHT22;28319;48.116;10.818;2024-03-02T17:30:30;9.90;67.70
41985;DHT22;28319;48.116;10.818;2024-03-02T17:35:34;9.80;68.20
41985;DHT22;28319;48.116;10.818;2024-03-02T17:40:35;9.70;68.30
41985;DHT22;28319;48.116;10.818;2024-03-02T17:45:37;9.70;68.80
41985;DHT22;28319;48.116;10.818;2024-03-02T17:50:41;9.50;69.70
41985;DHT22;28319;48.116;10.818;2024-03-02T17:55:43;9.40;70.00
41985;DHT22;28319;48.116;10.818;2024-03-02T18:00:45;9.50;70.10
41985;DHT22;28319;48.116;10.818;2024-03-02T18:05:48;9.40;70.30
41985;DHT22;28319;48.116;10.818;2024-03-02T18:10:50;9.40;70.30
41985;DHT22;28319;48.116;10.818;2024-03-02T18:15:52;9.30;70.80
41985;DHT22;28319;48.116;10.818;2024-03-02T18:20:55;9.30;71.00
41985;DHT22;28319;48.116;10.818;2024-03-02T18:25:57;9.40;70.60
41985;DHT22;28319;48.116;10.818;2024-03-02T18:30:59;9.60;70.10
41985;DHT22;28319;48.116;10.818;2024-03-02T18:36:04;9.90;69.30
41985;DHT22;28319;48.116;10.818;2024-03-02T18:41:06;9.80;67.90
41985;DHT22;28319;48.116;10.818;2024-03-02T18:46:10;9.50;69.60
41985;DHT22;28319;48.116;10.818;2024-03-02T18:51:13;9.20;71.00
41985;DHT22;28319;48.116;10.818;2024-03-02T18:56:15;8.90;71.30
41985;DHT22;28319;48.116;10.818;2024-03-02T19:01:17;9.00;72.20
41985;DHT22;28319;48.116;10.818;2024-03-02T19:06:21;8.70;73.10
41985;DHT22;28319;48.116;10.818;2024-03-02T19:11:23;8.70;72.30
41985;DHT22;28319;48.116;10.818;2024-03-02T19:16:25;8.80;72.10
41985;DHT22;28319;48.116;10.818;2024-03-02T19:21:28;8.70;72.00
41985;DHT22;28319;48.116;10.818;2024-03-02T19:26:30;8.70;71.70
41985;DHT22;28319;48.116;10.818;2024-03-02T19:31:32;8.50;71.90
41985;DHT22;28319;48.116;10.818;2024-03-02T19:36:35;8.90;71.90
41985;DHT22;28319;48.116;10.818;2024-03-02T19:41:37;8.90;72.20
41985;DHT22;28319;48.116;10.818;2024-03-02T19:46:39;8.40;71.90
41985;DHT22;28319;48.116;10.818;2024-03-02T19:51:43;8.30;72.50
41985;DHT22;28319;48.116;10.818;2024-03-02T19:56:44;8.10;73.00
41985;DHT22;28319;48.116;10.818;2024-03-02T20:01:46;8.20;72.50
41985;DHT22;28319;48.116;10.818;2024-03-02T20:06:50;8.50;73.00
41985;DHT22;28319;48.116;10.818;2024-03-02T20:11:51;8.30;71.70
41985;DHT22;28319;48.116;10.818;2024-03-02T20:16:55;8.40;70.80
41985;DHT22;28319;48.116;10.818;2024-03-02T20:21:58;8.70;70.80
41985;DHT22;28319;48.116;10.818;2024-03-02T20:27:00;8.80;70.30
41985;DHT22;28319;48.116;10.818;2024-03-02T20:32:05;8.80;70.30
41985;DHT22;28319;48.116;10.818;2024-03-02T20:37:09;8.20;70.10
41985;DHT22;28319;48.116;10.818;2024-03-02T20:42:11;7.90;71.70
41985;DHT22;28319;48.116;10.818;2024-03-02T20:47:13;7.70;72.50
41985;DHT22;28319;48.116;10.818;2024-03-02T20:52:17;7.70;72.70
41985;DHT22;28319;48.116;10.818;2024-03-02T20:57:20;7.70;72.50
41985;DHT22;28319;48.116;10.818;2024-03-02T21:02:22;7.80;71.10
41985;DHT22;28319;48.116;10.818;2024-03-02T21:07:25;8.10;71.00
41985;DHT22;28319;48.116;10.818;2024-03-02T21:12:27;7.90;70.10
41985;DHT22;28319;48.116;10.818;2024-03-02T21:17:29;7.90;70.10
41985;DHT22;28319;48.116;10.818;2024-03-02T21:22:32;7.90;69.50
41985;DHT22;28319;48.116;10.818;2024-03-02T21:27:34;8.20;69.40
41985;DHT22;28319;48.116;10.818;2024-03-02T21:32:36;8.10;69.10
41985;DHT22;28319;48.116;10.818;2024-03-02T21:37:39;7.90;69.60
41985;DHT22;28319;48.116;10.818;2024-03-02T21:42:41;7.80;68.80
41985;DHT22;28319;48.116;10.818;2024-03-02T21:47:43;7.50;68.60
41985;DHT22;28319;48.116;10.818;2024-03-02T21:52:47;7.40;68.60
41985;DHT22;28319;48.116;10.818;2024-03-02T21:57:53;7.40;69.00
41985;DHT22;28319;48.116;10.818;2024-03-02T22:02:55;7.30;68.80
41985;DHT22;28319;48.116;10.818;2024-03-02T22:07:59;7.20;68.20
41985;DHT22;28319;48.116;10.818;2024-03-02T22:13:00;7.20;68.20
41985;DHT22;28319;48.116;10.818;2024-03-02T22:18:03;7.00;67.60
41985;DHT22;28319;48.116;10.818;2024-03-02T22:23:06;6.90;68.00
41985;DHT22;28319;48.116;10.818;2024-03-02T22:28:08;6.80;67.70
41985;DHT22;28319;48.116;10.818;2024-03-02T22:33:10;6.70;68.00
41985;DHT22;28319;48.116;10.818;2024-03-02T22:38:13;6.70;68.00
41985;DHT22;28319;48.116;10.818;2024-03-02T22:43:16;6.60;67.80
41985;DHT22;28319;48.116;10.818;2024-03-02T22:48:18;6.50;67.70
41985;DHT22;28319;48.116;10.818;2024-03-02T22:53:22;6.50;68.10
41985;DHT22;28319;48.116;10.818;2024-03-02T22:58:23;6.40;67.40
41985;DHT22;28319;48.116;10.818;2024-03-02T23:03:26;6.40;68.30
41985;DHT22;28319;48.116;10.818;2024-03-02T23:08:29;6.30;67.50
41985;DHT22;28319;48.116;10.818;2024-03-02T23:13:31;6.20;68.30
41985;DHT22;28319;48.116;10.818;2024-03-02T23:18:33;6.20;67.80
41985;DHT22;28319;48.116;10.818;2024-03-02T23:23:36;6.10;67.70
41985;DHT22;28319;48.116;10.818;2024-03-02T23:28:38;5.90;68.20
41985;DHT22;28319;48.116;10.818;2024-03-02T23:33:40;6.00;68.70
41985;DHT22;28319;48.116;10.818;2024-03-02T23:38:43;5.90;67.70
41985;DHT22;28319;48.116;10.818;2024-03-02T23:43:45;5.80;68.10
41985;DHT22;28319;48.116;10.818;2024-03-02T23:48:47;5.80;67.70
41985;DHT22;28319;48.116;10.818;2024-03-02T23:53:50;5.80;67.80
41985;DHT22;28319;48.116;10.818;2024-03-02T23:58:52;5.70;68.10
